sensor_id;sensor_type;location;lat;lon;timestamp;P1;durP1;ratioP1;P2;durP2;ratioP2
45316;SDS011;31053;55.870;37.592;2023-06-26T00:08:31;12.40;;;6.70;;
45316;SDS011;31053;55.870;37.592;2023-06-26T00:17:19;12.93;;;6.43;;
45316;SDS011;31053;55.870;37.592;2023-06-26T00:20:25;13.73;;;8.00;;
45316;SDS011;31053;55.870;37.592;2023-06-26T00:23:31;17.57;;;9.17;;
45316;SDS011;31053;55.870;37.592;2023-06-26T00:32:19;10.90;;;7.03;;
45316;SDS011;31053;55.870;37.592;2023-06-26T00:41:07;11.85;;;7.18;;
45316;SDS011;31053;55.870;37.592;2023-06-26T00:44:16;11.48;;;8.07;;
45316;SDS011;31053;55.870;37.592;2023-06-26T00:53:05;21.58;;;10.90;;
45316;SDS011;31053;55.870;37.592;2023-06-26T00:56:10;16.58;;;10.82;;
45316;SDS011;31053;55.870;37.592;2023-06-26T01:04:59;20.67;;;13.80;;
45316;SDS011;31053;55.870;37.592;2023-06-26T01:13:47;18.73;;;11.50;;
45316;SDS011;31053;55.870;37.592;2023-06-26T01:22:47;22.20;;;14.55;;
45316;SDS011;31053;55.870;37.592;2023-06-26T01:31:50;22.70;;;13.93;;
45316;SDS011;31053;55.870;37.592;2023-06-26T01:53:05;26.55;;;14.98;;
45316;SDS011;31053;55.870;37.592;2023-06-26T02:02:01;26.33;;;15.65;;
45316;SDS011;31053;55.870;37.592;2023-06-26T02:14:05;21.48;;;13.65;;
45316;SDS011;31053;55.870;37.592;2023-06-26T02:22:58;29.02;;;15.85;;
45316;SDS011;31053;55.870;37.592;2023-06-26T02:31:46;25.38;;;13.18;;
45316;SDS011;31053;55.870;37.592;2023-06-26T02:40:33;21.00;;;12.80;;
45316;SDS011;31053;55.870;37.592;2023-06-26T03:01:03;15.80;;;10.48;;
45316;SDS011;31053;55.870;37.592;2023-06-26T03:09:49;17.42;;;11.63;;
45316;SDS011;31053;55.870;37.592;2023-06-26T03:18:37;18.30;;;11.57;;
45316;SDS011;31053;55.870;37.592;2023-06-26T03:27:24;15.45;;;9.02;;
45316;SDS011;31053;55.870;37.592;2023-06-26T03:30:30;23.73;;;11.25;;
45316;SDS011;31053;55.870;37.592;2023-06-26T03:39:17;19.98;;;10.45;;
45316;SDS011;31053;55.870;37.592;2023-06-26T03:42:22;17.13;;;10.90;;
45316;SDS011;31053;55.870;37.592;2023-06-26T03:51:08;18.05;;;9.73;;
45316;SDS011;31053;55.870;37.592;2023-06-26T03:54:23;16.80;;;9.82;;
45316;SDS011;31053;55.870;37.592;2023-06-26T03:57:30;21.48;;;12.20;;
45316;SDS011;31053;55.870;37.592;2023-06-26T04:00:35;13.95;;;9.35;;
45316;SDS011;31053;55.870;37.592;2023-06-26T04:03:41;18.15;;;10.18;;
45316;SDS011;31053;55.870;37.592;2023-06-26T04:12:30;15.85;;;9.65;;
45316;SDS011;31053;55.870;37.592;2023-06-26T04:21:18;13.40;;;9.27;;
45316;SDS011;31053;55.870;37.592;2023-06-26T04:30:05;15.52;;;9.70;;
45316;SDS011;31053;55.870;37.592;2023-06-26T04:38:51;15.35;;;8.80;;
45316;SDS011;31053;55.870;37.592;2023-06-26T04:41:56;13.43;;;9.70;;
45316;SDS011;31053;55.870;37.592;2023-06-26T04:45:01;12.43;;;8.57;;
45316;SDS011;31053;55.870;37.592;2023-06-26T04:48:10;12.55;;;8.70;;
45316;SDS011;31053;55.870;37.592;2023-06-26T04:51:15;16.73;;;9.50;;
45316;SDS011;31053;55.870;37.592;2023-06-26T04:54:27;11.23;;;7.22;;
45316;SDS011;31053;55.870;37.592;2023-06-26T04:57:34;12.80;;;8.10;;
45316;SDS011;31053;55.870;37.592;2023-06-26T05:06:24;20.05;;;10.93;;
45316;SDS011;31053;55.870;37.592;2023-06-26T05:09:29;17.55;;;7.45;;
45316;SDS011;31053;55.870;37.592;2023-06-26T05:12:35;13.00;;;7.77;;
45316;SDS011;31053;55.870;37.592;2023-06-26T05:15:42;9.70;;;6.97;;
45316;SDS011;31053;55.870;37.592;2023-06-26T05:24:29;14.65;;;6.20;;
45316;SDS011;31053;55.870;37.592;2023-06-26T05:27:35;12.23;;;6.83;;
45316;SDS011;31053;55.870;37.592;2023-06-26T05:36:20;7.68;;;5.38;;
45316;SDS011;31053;55.870;37.592;2023-06-26T05:39:30;6.80;;;4.05;;
45316;SDS011;31053;55.870;37.592;2023-06-26T05:48:19;8.73;;;5.32;;
45316;SDS011;31053;55.870;37.592;2023-06-26T05:57:06;5.00;;;3.95;;
45316;SDS011;31053;55.870;37.592;2023-06-26T06:00:17;8.10;;;4.72;;
45316;SDS011;31053;55.870;37.592;2023-06-26T06:09:05;10.45;;;5.80;;
45316;SDS011;31053;55.870;37.592;2023-06-26T06:17:52;7.90;;;3.97;;
45316;SDS011;31053;55.870;37.592;2023-06-26T06:20:57;6.97;;;3.08;;
45316;SDS011;31053;55.870;37.592;2023-06-26T06:24:03;5.43;;;4.25;;
45316;SDS011;31053;55.870;37.592;2023-06-26T06:32:54;5.88;;;3.10;;
45316;SDS011;31053;55.870;37.592;2023-06-26T06:50:31;6.72;;;3.20;;
45316;SDS011;31053;55.870;37.592;2023-06-26T06:59:18;14.23;;;3.42;;
45316;SDS011;31053;55.870;37.592;2023-06-26T07:30:31;5.85;;;4.15;;
45316;SDS011;31053;55.870;37.592;2023-06-26T07:39:17;6.35;;;3.40;;
45316;SDS011;31053;55.870;37.592;2023-06-26T07:48:03;3.67;;;2.53;;
45316;SDS011;31053;55.870;37.592;2023-06-26T07:56:55;7.00;;;3.92;;
45316;SDS011;31053;55.870;37.592;2023-06-26T08:53:21;3.85;;;3.28;;
45316;SDS011;31053;55.870;37.592;2023-06-26T09:02:30;10.00;;;4.70;;
45316;SDS011;31053;55.870;37.592;2023-06-26T09:11:18;4.95;;;3.40;;
45316;SDS011;31053;55.870;37.592;2023-06-26T09:20:06;10.40;;;5.32;;
45316;SDS011;31053;55.870;37.592;2023-06-26T09:37:15;7.15;;;5.25;;
45316;SDS011;31053;55.870;37.592;2023-06-26T10:31:50;5.72;;;3.25;;
45316;SDS011;31053;55.870;37.592;2023-06-26T10:43:15;4.93;;;3.67;;
45316;SDS011;31053;55.870;37.592;2023-06-26T11:29:09;2.40;;;2.20;;
45316;SDS011;31053;55.870;37.592;2023-06-26T12:01:24;10.13;;;6.95;;
45316;SDS011;31053;55.870;37.592;2023-06-26T12:04:29;8.40;;;3.78;;
45316;SDS011;31053;55.870;37.592;2023-06-26T12:47:23;7.18;;;3.40;;
45316;SDS011;31053;55.870;37.592;2023-06-26T13:14:06;4.60;;;4.10;;
45316;SDS011;31053;55.870;37.592;2023-06-26T13:17:11;7.32;;;3.47;;
45316;SDS011;31053;55.870;37.592;2023-06-26T13:22:52;4.10;;;3.33;;
45316;SDS011;31053;55.870;37.592;2023-06-26T13:25:58;5.10;;;2.47;;
45316;SDS011;31053;55.870;37.592;2023-06-26T13:29:03;2.92;;;2.47;;
45316;SDS011;31053;55.870;37.592;2023-06-26T13:32:08;4.80;;;3.08;;
45316;SDS011;31053;55.870;37.592;2023-06-26T13:35:12;6.18;;;3.70;;
45316;SDS011;31053;55.870;37.592;2023-06-26T13:38:21;6.35;;;3.25;;
45316;SDS011;31053;55.870;37.592;2023-06-26T13:41:30;8.52;;;3.92;;
45316;SDS011;31053;55.870;37.592;2023-06-26T13:44:35;9.50;;;3.67;;
45316;SDS011;31053;55.870;37.592;2023-06-26T13:47:39;9.68;;;3.85;;
45316;SDS011;31053;55.870;37.592;2023-06-26T13:50:46;5.40;;;3.92;;
45316;SDS011;31053;55.870;37.592;2023-06-26T13:53:51;8.98;;;5.10;;
45316;SDS011;31053;55.870;37.592;2023-06-26T13:56:55;7.35;;;4.43;;
45316;SDS011;31053;55.870;37.592;2023-06-26T14:00:01;5.53;;;3.47;;
45316;SDS011;31053;55.870;37.592;2023-06-26T14:03:17;6.38;;;3.20;;
45316;SDS011;31053;55.870;37.592;2023-06-26T14:06:21;5.65;;;3.50;;
45316;SDS011;31053;55.870;37.592;2023-06-26T14:09:26;8.15;;;3.50;;
45316;SDS011;31053;55.870;37.592;2023-06-26T14:12:33;10.07;;;6.10;;
45316;SDS011;31053;55.870;37.592;2023-06-26T14:15:42;6.85;;;4.53;;
45316;SDS011;31053;55.870;37.592;2023-06-26T14:18:52;6.22;;;4.00;;
45316;SDS011;31053;55.870;37.592;2023-06-26T14:21:57;5.35;;;3.35;;
45316;SDS011;31053;55.870;37.592;2023-06-26T14:25:03;6.95;;;3.75;;
45316;SDS011;31053;55.870;37.592;2023-06-26T14:28:09;3.58;;;2.70;;
45316;SDS011;31053;55.870;37.592;2023-06-26T14:31:13;7.05;;;4.05;;
45316;SDS011;31053;55.870;37.592;2023-06-26T14:34:18;13.70;;;8.80;;
45316;SDS011;31053;55.870;37.592;2023-06-26T14:37:22;5.10;;;3.35;;
45316;SDS011;31053;55.870;37.592;2023-06-26T14:40:28;5.65;;;3.60;;
45316;SDS011;31053;55.870;37.592;2023-06-26T14:43:32;8.23;;;4.28;;
45316;SDS011;31053;55.870;37.592;2023-06-26T14:46:37;5.20;;;3.13;;
45316;SDS011;31053;55.870;37.592;2023-06-26T14:49:41;4.43;;;2.80;;
45316;SDS011;31053;55.870;37.592;2023-06-26T14:52:46;6.88;;;3.72;;
45316;SDS011;31053;55.870;37.592;2023-06-26T14:55:54;6.40;;;3.40;;
45316;SDS011;31053;55.870;37.592;2023-06-26T14:58:59;5.50;;;3.13;;
45316;SDS011;31053;55.870;37.592;2023-06-26T15:02:07;4.25;;;2.83;;
45316;SDS011;31053;55.870;37.592;2023-06-26T15:05:21;13.48;;;3.47;;
45316;SDS011;31053;55.870;37.592;2023-06-26T15:08:27;8.27;;;3.13;;
45316;SDS011;31053;55.870;37.592;2023-06-26T15:11:32;4.65;;;3.08;;
45316;SDS011;31053;55.870;37.592;2023-06-26T15:14:38;7.73;;;3.97;;
45316;SDS011;31053;55.870;37.592;2023-06-26T15:17:43;6.00;;;3.83;;
45316;SDS011;31053;55.870;37.592;2023-06-26T15:20:47;6.35;;;3.53;;
45316;SDS011;31053;55.870;37.592;2023-06-26T15:23:52;4.40;;;2.90;;
45316;SDS011;31053;55.870;37.592;2023-06-26T15:26:56;8.32;;;5.18;;
45316;SDS011;31053;55.870;37.592;2023-06-26T15:30:01;12.18;;;3.33;;
45316;SDS011;31053;55.870;37.592;2023-06-26T15:33:08;8.20;;;4.90;;
45316;SDS011;31053;55.870;37.592;2023-06-26T15:36:13;9.65;;;2.88;;
45316;SDS011;31053;55.870;37.592;2023-06-26T15:39:17;4.43;;;2.42;;
45316;SDS011;31053;55.870;37.592;2023-06-26T15:42:25;6.15;;;2.40;;
45316;SDS011;31053;55.870;37.592;2023-06-26T15:45:31;8.30;;;4.45;;
45316;SDS011;31053;55.870;37.592;2023-06-26T15:48:36;15.23;;;5.57;;
45316;SDS011;31053;55.870;37.592;2023-06-26T15:51:42;8.23;;;5.95;;
45316;SDS011;31053;55.870;37.592;2023-06-26T15:54:49;19.45;;;10.68;;
45316;SDS011;31053;55.870;37.592;2023-06-26T15:57:54;14.82;;;5.25;;
45316;SDS011;31053;55.870;37.592;2023-06-26T16:00:58;17.27;;;4.68;;
45316;SDS011;31053;55.870;37.592;2023-06-26T16:04:02;11.13;;;2.97;;
45316;SDS011;31053;55.870;37.592;2023-06-26T16:07:07;13.27;;;5.07;;
45316;SDS011;31053;55.870;37.592;2023-06-26T16:10:12;7.88;;;3.60;;
45316;SDS011;31053;55.870;37.592;2023-06-26T16:13:16;7.57;;;3.35;;
45316;SDS011;31053;55.870;37.592;2023-06-26T16:16:24;5.13;;;3.35;;
45316;SDS011;31053;55.870;37.592;2023-06-26T16:19:29;11.25;;;4.03;;
45316;SDS011;31053;55.870;37.592;2023-06-26T16:22:33;11.85;;;3.55;;
45316;SDS011;31053;55.870;37.592;2023-06-26T16:25:38;8.15;;;4.95;;
45316;SDS011;31053;55.870;37.592;2023-06-26T16:28:42;6.00;;;3.88;;
45316;SDS011;31053;55.870;37.592;2023-06-26T16:31:49;6.63;;;3.72;;
45316;SDS011;31053;55.870;37.592;2023-06-26T16:34:54;9.95;;;4.68;;
45316;SDS011;31053;55.870;37.592;2023-06-26T16:37:58;10.25;;;4.30;;
45316;SDS011;31053;55.870;37.592;2023-06-26T16:41:07;7.53;;;4.97;;
45316;SDS011;31053;55.870;37.592;2023-06-26T16:44:12;10.32;;;3.90;;
45316;SDS011;31053;55.870;37.592;2023-06-26T16:47:16;10.32;;;3.20;;
45316;SDS011;31053;55.870;37.592;2023-06-26T16:50:21;6.47;;;4.10;;
45316;SDS011;31053;55.870;37.592;2023-06-26T16:53:25;6.38;;;4.43;;
45316;SDS011;31053;55.870;37.592;2023-06-26T16:56:30;10.45;;;3.90;;
45316;SDS011;31053;55.870;37.592;2023-06-26T16:59:35;10.07;;;4.15;;
45316;SDS011;31053;55.870;37.592;2023-06-26T17:02:39;7.38;;;2.70;;
45316;SDS011;31053;55.870;37.592;2023-06-26T17:05:44;13.30;;;3.35;;
45316;SDS011;31053;55.870;37.592;2023-06-26T17:08:49;10.98;;;3.42;;
45316;SDS011;31053;55.870;37.592;2023-06-26T17:11:54;12.32;;;3.50;;
45316;SDS011;31053;55.870;37.592;2023-06-26T17:14:59;6.38;;;3.83;;
45316;SDS011;31053;55.870;37.592;2023-06-26T17:18:04;11.77;;;3.72;;
45316;SDS011;31053;55.870;37.592;2023-06-26T17:21:08;6.93;;;3.13;;
45316;SDS011;31053;55.870;37.592;2023-06-26T17:24:16;10.32;;;5.07;;
45316;SDS011;31053;55.870;37.592;2023-06-26T17:27:21;8.35;;;4.47;;
45316;SDS011;31053;55.870;37.592;2023-06-26T17:30:31;9.32;;;3.78;;
45316;SDS011;31053;55.870;37.592;2023-06-26T17:33:36;14.05;;;4.93;;
45316;SDS011;31053;55.870;37.592;2023-06-26T17:36:41;11.20;;;4.13;;
45316;SDS011;31053;55.870;37.592;2023-06-26T17:39:47;9.50;;;6.40;;
45316;SDS011;31053;55.870;37.592;2023-06-26T17:42:52;8.23;;;3.88;;
45316;SDS011;31053;55.870;37.592;2023-06-26T17:45:56;11.27;;;4.88;;
45316;SDS011;31053;55.870;37.592;2023-06-26T17:49:00;17.55;;;9.57;;
45316;SDS011;31053;55.870;37.592;2023-06-26T17:52:05;7.13;;;4.68;;
45316;SDS011;31053;55.870;37.592;2023-06-26T17:55:10;6.68;;;3.97;;
45316;SDS011;31053;55.870;37.592;2023-06-26T17:58:15;12.48;;;6.05;;
45316;SDS011;31053;55.870;37.592;2023-06-26T18:01:20;11.30;;;5.32;;
45316;SDS011;31053;55.870;37.592;2023-06-26T18:04:24;9.60;;;4.93;;
45316;SDS011;31053;55.870;37.592;2023-06-26T18:07:29;9.13;;;4.75;;
45316;SDS011;31053;55.870;37.592;2023-06-26T18:10:34;10.00;;;3.53;;
45316;SDS011;31053;55.870;37.592;2023-06-26T18:13:38;8.95;;;3.55;;
45316;SDS011;31053;55.870;37.592;2023-06-26T18:16:43;9.35;;;3.10;;
45316;SDS011;31053;55.870;37.592;2023-06-26T18:19:47;6.50;;;3.45;;
45316;SDS011;31053;55.870;37.592;2023-06-26T18:22:52;6.10;;;3.47;;
45316;SDS011;31053;55.870;37.592;2023-06-26T18:25:58;23.65;;;11.70;;
45316;SDS011;31053;55.870;37.592;2023-06-26T18:29:03;16.35;;;9.20;;
45316;SDS011;31053;55.870;37.592;2023-06-26T18:32:08;20.33;;;14.02;;
45316;SDS011;31053;55.870;37.592;2023-06-26T18:35:12;26.23;;;13.73;;
45316;SDS011;31053;55.870;37.592;2023-06-26T18:38:17;23.73;;;11.80;;
45316;SDS011;31053;55.870;37.592;2023-06-26T18:41:21;13.80;;;7.55;;
45316;SDS011;31053;55.870;37.592;2023-06-26T18:44:26;12.77;;;6.03;;
45316;SDS011;31053;55.870;37.592;2023-06-26T18:47:30;39.63;;;25.23;;
45316;SDS011;31053;55.870;37.592;2023-06-26T18:50:34;16.15;;;9.50;;
45316;SDS011;31053;55.870;37.592;2023-06-26T18:53:39;13.27;;;8.32;;
45316;SDS011;31053;55.870;37.592;2023-06-26T18:56:45;11.45;;;5.63;;
45316;SDS011;31053;55.870;37.592;2023-06-26T18:59:50;12.20;;;5.65;;
45316;SDS011;31053;55.870;37.592;2023-06-26T19:02:55;15.25;;;5.22;;
45316;SDS011;31053;55.870;37.592;2023-06-26T19:06:03;8.88;;;4.75;;
45316;SDS011;31053;55.870;37.592;2023-06-26T19:09:08;16.00;;;10.13;;
45316;SDS011;31053;55.870;37.592;2023-06-26T19:12:14;12.88;;;7.30;;
45316;SDS011;31053;55.870;37.592;2023-06-26T19:15:20;20.90;;;13.85;;
45316;SDS011;31053;55.870;37.592;2023-06-26T19:18:27;15.05;;;7.00;;
45316;SDS011;31053;55.870;37.592;2023-06-26T19:21:33;12.90;;;6.53;;
45316;SDS011;31053;55.870;37.592;2023-06-26T19:24:38;11.00;;;5.57;;
45316;SDS011;31053;55.870;37.592;2023-06-26T19:27:43;8.85;;;5.43;;
45316;SDS011;31053;55.870;37.592;2023-06-26T19:30:48;8.73;;;5.43;;
45316;SDS011;31053;55.870;37.592;2023-06-26T19:33:53;11.35;;;5.43;;
45316;SDS011;31053;55.870;37.592;2023-06-26T19:37:21;14.38;;;5.35;;
45316;SDS011;31053;55.870;37.592;2023-06-26T19:40:34;11.35;;;6.18;;
45316;SDS011;31053;55.870;37.592;2023-06-26T19:44:09;11.73;;;6.65;;
45316;SDS011;31053;55.870;37.592;2023-06-26T19:47:14;12.35;;;6.00;;
45316;SDS011;31053;55.870;37.592;2023-06-26T19:50:21;10.43;;;6.53;;
45316;SDS011;31053;55.870;37.592;2023-06-26T19:53:26;14.23;;;6.35;;
45316;SDS011;31053;55.870;37.592;2023-06-26T19:56:32;33.03;;;15.70;;
45316;SDS011;31053;55.870;37.592;2023-06-26T19:59:37;16.83;;;8.43;;
45316;SDS011;31053;55.870;37.592;2023-06-26T20:02:45;14.60;;;7.45;;
45316;SDS011;31053;55.870;37.592;2023-06-26T20:05:51;16.93;;;8.63;;
45316;SDS011;31053;55.870;37.592;2023-06-26T20:09:02;24.35;;;6.95;;
45316;SDS011;31053;55.870;37.592;2023-06-26T20:12:08;16.70;;;6.50;;
45316;SDS011;31053;55.870;37.592;2023-06-26T20:15:13;17.20;;;6.32;;
45316;SDS011;31053;55.870;37.592;2023-06-26T20:18:18;14.57;;;6.18;;
45316;SDS011;31053;55.870;37.592;2023-06-26T20:21:24;14.23;;;6.13;;
45316;SDS011;31053;55.870;37.592;2023-06-26T20:24:29;15.45;;;5.57;;
45316;SDS011;31053;55.870;37.592;2023-06-26T20:27:37;11.52;;;6.28;;
45316;SDS011;31053;55.870;37.592;2023-06-26T20:30:42;14.70;;;5.80;;
45316;SDS011;31053;55.870;37.592;2023-06-26T20:33:47;12.75;;;6.18;;
45316;SDS011;31053;55.870;37.592;2023-06-26T20:36:52;14.90;;;5.93;;
45316;SDS011;31053;55.870;37.592;2023-06-26T20:39:56;15.27;;;6.75;;
45316;SDS011;31053;55.870;37.592;2023-06-26T20:43:01;11.25;;;6.35;;
45316;SDS011;31053;55.870;37.592;2023-06-26T20:46:06;18.00;;;6.40;;
45316;SDS011;31053;55.870;37.592;2023-06-26T20:49:11;14.20;;;6.53;;
45316;SDS011;31053;55.870;37.592;2023-06-26T20:52:16;8.68;;;5.43;;
45316;SDS011;31053;55.870;37.592;2023-06-26T20:55:22;6.65;;;3.88;;
45316;SDS011;31053;55.870;37.592;2023-06-26T20:58:27;10.65;;;4.97;;
45316;SDS011;31053;55.870;37.592;2023-06-26T21:01:31;12.75;;;5.93;;
45316;SDS011;31053;55.870;37.592;2023-06-26T21:04:36;10.65;;;5.50;;
45316;SDS011;31053;55.870;37.592;2023-06-26T21:07:41;12.60;;;6.38;;
45316;SDS011;31053;55.870;37.592;2023-06-26T21:10:45;10.57;;;4.30;;
45316;SDS011;31053;55.870;37.592;2023-06-26T21:13:50;7.65;;;5.35;;
45316;SDS011;31053;55.870;37.592;2023-06-26T21:16:54;11.32;;;6.43;;
45316;SDS011;31053;55.870;37.592;2023-06-26T21:19:59;14.50;;;7.72;;
45316;SDS011;31053;55.870;37.592;2023-06-26T21:23:04;10.43;;;6.50;;
45316;SDS011;31053;55.870;37.592;2023-06-26T21:26:09;11.70;;;5.32;;
45316;SDS011;31053;55.870;37.592;2023-06-26T21:29:13;9.55;;;5.00;;
45316;SDS011;31053;55.870;37.592;2023-06-26T21:32:18;10.00;;;4.60;;
45316;SDS011;31053;55.870;37.592;2023-06-26T21:35:22;12.10;;;4.75;;
45316;SDS011;31053;55.870;37.592;2023-06-26T21:38:27;17.25;;;9.40;;
45316;SDS011;31053;55.870;37.592;2023-06-26T21:41:32;12.27;;;5.65;;
45316;SDS011;31053;55.870;37.592;2023-06-26T21:44:37;8.00;;;4.82;;
45316;SDS011;31053;55.870;37.592;2023-06-26T21:47:41;7.55;;;4.95;;
45316;SDS011;31053;55.870;37.592;2023-06-26T21:50:46;9.23;;;4.60;;
45316;SDS011;31053;55.870;37.592;2023-06-26T21:53:52;21.23;;;13.57;;
45316;SDS011;31053;55.870;37.592;2023-06-26T21:56:56;13.38;;;6.93;;
45316;SDS011;31053;55.870;37.592;2023-06-26T22:00:01;12.45;;;5.45;;
45316;SDS011;31053;55.870;37.592;2023-06-26T22:03:11;10.70;;;5.03;;
45316;SDS011;31053;55.870;37.592;2023-06-26T22:06:15;6.68;;;4.38;;
45316;SDS011;31053;55.870;37.592;2023-06-26T22:09:20;10.02;;;5.18;;
45316;SDS011;31053;55.870;37.592;2023-06-26T22:12:25;11.15;;;4.85;;
45316;SDS011;31053;55.870;37.592;2023-06-26T22:15:29;6.32;;;4.60;;
45316;SDS011;31053;55.870;37.592;2023-06-26T22:18:34;11.27;;;7.35;;
45316;SDS011;31053;55.870;37.592;2023-06-26T22:21:38;17.38;;;8.82;;
45316;SDS011;31053;55.870;37.592;2023-06-26T22:24:43;12.55;;;6.35;;
45316;SDS011;31053;55.870;37.592;2023-06-26T22:27:49;15.25;;;5.03;;
45316;SDS011;31053;55.870;37.592;2023-06-26T22:30:55;10.95;;;5.00;;
45316;SDS011;31053;55.870;37.592;2023-06-26T22:34:00;8.23;;;3.70;;
45316;SDS011;31053;55.870;37.592;2023-06-26T22:37:04;12.98;;;4.28;;
45316;SDS011;31053;55.870;37.592;2023-06-26T22:40:10;7.20;;;3.47;;
45316;SDS011;31053;55.870;37.592;2023-06-26T22:43:15;17.27;;;9.35;;
45316;SDS011;31053;55.870;37.592;2023-06-26T22:46:20;25.67;;;15.45;;
45316;SDS011;31053;55.870;37.592;2023-06-26T22:49:25;13.73;;;7.80;;
45316;SDS011;31053;55.870;37.592;2023-06-26T22:52:29;8.80;;;5.28;;
45316;SDS011;31053;55.870;37.592;2023-06-26T22:55:36;12.35;;;6.35;;
45316;SDS011;31053;55.870;37.592;2023-06-26T22:58:40;12.55;;;4.97;;
45316;SDS011;31053;55.870;37.592;2023-06-26T23:01:45;10.18;;;5.15;;
45316;SDS011;31053;55.870;37.592;2023-06-26T23:04:49;18.20;;;10.80;;
45316;SDS011;31053;55.870;37.592;2023-06-26T23:07:54;11.70;;;6.10;;
45316;SDS011;31053;55.870;37.592;2023-06-26T23:10:59;19.85;;;11.25;;
45316;SDS011;31053;55.870;37.592;2023-06-26T23:14:03;22.55;;;10.20;;
45316;SDS011;31053;55.870;37.592;2023-06-26T23:17:08;22.80;;;11.02;;
45316;SDS011;31053;55.870;37.592;2023-06-26T23:20:15;12.40;;;6.75;;
45316;SDS011;31053;55.870;37.592;2023-06-26T23:23:21;10.32;;;5.18;;
45316;SDS011;31053;55.870;37.592;2023-06-26T23:26:26;17.10;;;10.98;;
45316;SDS011;31053;55.870;37.592;2023-06-26T23:29:35;17.05;;;6.22;;
45316;SDS011;31053;55.870;37.592;2023-06-26T23:32:41;12.10;;;5.05;;
45316;SDS011;31053;55.870;37.592;2023-06-26T23:35:45;7.88;;;4.70;;
45316;SDS011;31053;55.870;37.592;2023-06-26T23:38:50;9.95;;;5.15;;
45316;SDS011;31053;55.870;37.592;2023-06-26T23:41:54;6.60;;;3.95;;
45316;SDS011;31053;55.870;37.592;2023-06-26T23:44:59;7.68;;;4.00;;
45316;SDS011;31053;55.870;37.592;2023-06-26T23:48:05;12.50;;;4.85;;
45316;SDS011;31053;55.870;37.592;2023-06-26T23:51:10;14.45;;;9.18;;
45316;SDS011;31053;55.870;37.592;2023-06-26T23:54:15;15.73;;;10.40;;
45316;SDS011;31053;55.870;37.592;2023-06-26T23:57:20;15.70;;;9.50;;
